Terminal Aerodrome Forecast
Issued by NWS

Home | Current Version | Previous Version | Text Only | Print | Product List | Glossary On
Versions: 1 2 3 4 5 6 7 8 9 10 11 12 13 14 15 16 17 18 19 20 21 22 23
000
FTAK31 PAFA 251816 AAA
TAFAFA
TAF AMD
PAFA 251816Z 2518/2624 18003KT P6SM VCSH BKN035 BKN045 OVC080
     FM252200 21004KT P6SM -SHRA SCT030 BKN060
     FM260200 22004KT P6SM -SHRA SCT025 BKN050
     FM260600 VRB03KT P6SM VCSH BKN050=

USA.gov is the U.S. government's official web portal to all federal, state and local government web resources and services.